createdAt,value
2019-05-26T05:24:30.165Z,19.22
2019-05-26T05:25:30.132Z,19.36
2019-05-26T05:26:30.131Z,19.61
2019-05-26T05:27:30.114Z,19.86
2019-05-26T05:28:30.110Z,19.94
2019-05-26T05:29:30.276Z,20.16
2019-05-26T05:30:30.112Z,20.26
2019-05-26T05:31:30.107Z,20.36
2019-05-26T05:32:32.802Z,20.55
2019-05-26T05:33:30.095Z,20.74
2019-05-26T05:34:30.128Z,20.88
2019-05-26T05:35:30.094Z,21.07
2019-05-26T05:36:30.088Z,21.14
2019-05-26T05:37:30.155Z,21.1
2019-05-26T05:38:30.089Z,21.38
2019-05-26T05:39:29.855Z,21.65
2019-05-26T05:40:30.085Z,21.83
2019-05-26T05:41:30.079Z,22.1
2019-05-26T05:42:30.083Z,22.36
2019-05-26T05:43:30.085Z,22.64
2019-05-26T05:44:30.090Z,22.94
2019-05-26T05:45:30.079Z,23.23
2019-05-26T05:46:30.082Z,23.65
2019-05-26T05:47:30.088Z,24.08
2019-05-26T05:48:30.088Z,24.39
2019-05-26T05:49:30.116Z,24.69
2019-05-26T05:50:29.847Z,25.15
2019-05-26T05:51:30.090Z,25.55
2019-05-26T05:52:30.096Z,25.97
2019-05-26T05:53:30.097Z,26.36
2019-05-26T05:54:30.099Z,26.84
2019-05-26T05:55:30.105Z,27.03
2019-05-26T05:56:30.106Z,27.36
2019-05-26T05:57:30.117Z,27.59
2019-05-26T05:58:30.129Z,27.69
2019-05-26T05:59:30.141Z,27.87
2019-05-26T06:00:30.133Z,28.03
2019-05-26T06:01:30.148Z,28.17
2019-05-26T06:02:30.162Z,28.44
2019-05-26T06:03:30.152Z,28.55
2019-05-26T06:04:30.186Z,28.7
2019-05-26T06:05:30.163Z,28.89
2019-05-26T06:06:30.174Z,28.93
2019-05-26T06:07:30.199Z,29.06
2019-05-26T06:08:30.187Z,29.24
2019-05-26T06:09:30.221Z,29.27
2019-05-26T06:10:30.205Z,29.14
2019-05-26T06:11:30.210Z,29.18
2019-05-26T06:12:30.218Z,29.16
2019-05-26T06:13:30.237Z,29.24
2019-05-26T06:14:30.237Z,29.28
2019-05-26T06:15:30.237Z,29.34
2019-05-26T06:16:30.287Z,29.31
2019-05-26T06:17:30.265Z,29.33
2019-05-26T06:18:30.266Z,29.36
2019-05-26T06:19:30.270Z,29.33
2019-05-26T06:20:30.278Z,29.42
2019-05-26T06:21:30.286Z,29.36
2019-05-26T06:22:30.297Z,29.41
2019-05-26T06:23:30.321Z,29.46
2019-05-26T06:24:30.317Z,29.48
2019-05-26T06:25:30.326Z,29.51
2019-05-26T06:26:30.325Z,29.57
2019-05-26T06:27:30.343Z,29.61
2019-05-26T06:28:30.341Z,29.67
2019-05-26T06:29:30.351Z,29.73
2019-05-26T06:30:30.365Z,29.8
2019-05-26T06:31:30.387Z,29.79
2019-05-26T06:32:30.371Z,29.79
2019-05-26T06:33:30.383Z,29.82
2019-05-26T06:34:30.389Z,29.76
2019-05-26T06:35:32.554Z,29.8
2019-05-26T06:36:30.409Z,29.78
2019-05-26T06:37:30.417Z,29.82
2019-05-26T06:38:30.452Z,29.87
2019-05-26T06:39:30.435Z,30.01
2019-05-26T06:40:30.454Z,30.07
2019-05-26T06:41:38.341Z,30.11
2019-05-26T06:42:30.467Z,30.17
2019-05-26T06:43:30.465Z,30.19
2019-05-26T06:44:30.489Z,30.2
2019-05-26T06:45:30.481Z,30.32
2019-05-26T06:46:30.495Z,30.37
2019-05-26T06:47:30.529Z,30.38
2019-05-26T06:48:31.783Z,30.46
2019-05-26T06:49:30.524Z,30.53
2019-05-26T06:50:30.530Z,30.53
2019-05-26T06:51:30.540Z,30.29
2019-05-26T06:52:30.550Z,30.32
2019-05-26T06:53:30.770Z,30.35
2019-05-26T06:54:30.569Z,30.47
2019-05-26T06:55:30.574Z,30.6
2019-05-26T06:56:30.586Z,30.72
2019-05-26T06:57:30.594Z,30.88
2019-05-26T06:58:30.606Z,30.98
2019-05-26T06:59:30.610Z,31.04
2019-05-26T07:00:30.629Z,31.13
2019-05-26T07:01:30.642Z,31.31
2019-05-26T07:02:30.669Z,31.48
2019-05-26T07:03:30.652Z,31.58
2019-05-26T07:04:30.663Z,31.5
2019-05-26T07:05:30.677Z,31.54
2019-05-26T07:06:30.682Z,31.56
2019-05-26T07:07:30.696Z,31.56
2019-05-26T07:08:30.704Z,31.68
2019-05-26T07:09:30.470Z,31.69
2019-05-26T07:10:30.913Z,31.69
2019-05-26T07:11:30.738Z,31.93
2019-05-26T07:12:30.742Z,32.08
2019-05-26T07:13:30.755Z,32.23
2019-05-26T07:14:30.528Z,32.29
2019-05-26T07:15:30.790Z,32.57
2019-05-26T07:16:42.407Z,32.72
2019-05-26T07:17:30.828Z,32.77
2019-05-26T07:18:30.816Z,32.78
2019-05-26T07:19:30.841Z,32.87
2019-05-26T07:20:30.838Z,32.89
2019-05-26T07:21:30.849Z,33.06
2019-05-26T07:22:30.860Z,33.16
2019-05-26T07:23:30.879Z,33.15
2019-05-26T07:24:34.145Z,33.22
2019-05-26T07:25:30.890Z,33.31
2019-05-26T07:26:30.927Z,33.29
2019-05-26T07:27:30.913Z,33.44
2019-05-26T07:28:30.933Z,33.63
2019-05-26T07:29:30.947Z,33.81
2019-05-26T07:30:30.955Z,33.75
2019-05-26T07:31:30.964Z,33.51
2019-05-26T07:32:30.984Z,33.56
2019-05-26T07:33:31.000Z,33.57
2019-05-26T07:34:31.000Z,33.49
2019-05-26T07:35:33.006Z,33.41
2019-05-26T07:36:31.032Z,33.39
2019-05-26T07:37:31.035Z,33.5
2019-05-26T07:38:31.053Z,33.73
2019-05-26T07:39:31.060Z,33.88
2019-05-26T07:40:31.073Z,34
2019-05-26T07:41:30.847Z,34.21
2019-05-26T07:42:31.124Z,34.32
2019-05-26T07:43:33.002Z,34.39
2019-05-26T07:44:31.139Z,34.47
2019-05-26T07:45:31.139Z,34.49
2019-05-26T07:46:31.146Z,34.4
2019-05-26T07:47:31.158Z,34.4
2019-05-26T07:48:34.902Z,34.44
2019-05-26T07:49:31.189Z,34.49
2019-05-26T07:50:31.193Z,34.61
2019-05-26T07:51:31.212Z,34.75
2019-05-26T07:52:31.288Z,34.78
2019-05-26T07:53:31.232Z,34.56
2019-05-26T07:54:31.247Z,34.49
2019-05-26T07:55:31.257Z,34.61
2019-05-26T07:56:31.269Z,34.65
2019-05-26T07:57:31.281Z,34.65
2019-05-26T07:58:31.296Z,34.56
2019-05-26T07:59:31.313Z,34.47
2019-05-26T08:00:31.329Z,34.34
2019-05-26T08:01:40.521Z,34.4
2019-05-26T08:02:31.345Z,34.35
2019-05-26T08:03:31.381Z,34.39
2019-05-26T08:04:31.370Z,34.37
2019-05-26T08:05:31.397Z,34.34
2019-05-26T08:06:31.398Z,34.22
2019-05-26T08:07:31.163Z,34.22
2019-05-26T08:08:31.423Z,34.24
2019-05-26T08:09:31.471Z,34.27
2019-05-26T08:10:31.444Z,34.21
2019-05-26T08:11:31.485Z,34.17
2019-05-26T08:12:35.338Z,34.19
2019-05-26T08:13:31.484Z,34.19
2019-05-26T08:14:31.502Z,34.06
2019-05-26T08:15:31.507Z,33.79
2019-05-26T08:16:31.668Z,33.69
2019-05-26T08:17:31.531Z,33.63
2019-05-26T08:18:31.548Z,33.63
2019-05-26T08:19:31.571Z,33.42
2019-05-26T08:20:31.574Z,33.31
2019-05-26T08:21:31.579Z,33.14
2019-05-26T08:22:31.633Z,33.07
2019-05-26T08:23:31.609Z,33.16
2019-05-26T08:24:31.619Z,33.11
2019-05-26T08:25:31.623Z,32.88
2019-05-26T08:26:31.633Z,32.82
2019-05-26T08:27:31.651Z,32.78
2019-05-26T08:28:31.659Z,32.75
2019-05-26T08:29:31.678Z,32.59
2019-05-26T08:30:31.685Z,32.59
2019-05-26T08:31:31.694Z,32.28
2019-05-26T08:32:31.699Z,32.07
2019-05-26T08:33:31.710Z,31.78
2019-05-26T08:34:31.722Z,31.68
2019-05-26T08:35:31.730Z,31.69
2019-05-26T08:36:31.738Z,31.7
2019-05-26T08:37:31.747Z,31.7
2019-05-26T08:38:31.764Z,31.68
2019-05-26T08:39:31.774Z,31.56
2019-05-26T08:40:31.790Z,31.43
2019-05-26T08:41:31.793Z,31.17
2019-05-26T08:42:47.331Z,30.98
2019-05-26T08:43:31.806Z,30.91
2019-05-26T08:44:31.814Z,30.7
2019-05-26T08:45:31.841Z,30.62
2019-05-26T08:46:31.844Z,30.61
2019-05-26T08:47:31.847Z,30.61
2019-05-26T08:48:31.856Z,30.32
2019-05-26T08:49:31.870Z,30.19
2019-05-26T08:50:34.222Z,30.02
2019-05-26T08:51:31.878Z,29.97
2019-05-26T08:52:31.891Z,29.92
2019-05-26T08:53:31.892Z,29.82
2019-05-26T08:54:31.912Z,29.8
2019-05-26T08:55:31.907Z,29.85
2019-05-26T08:56:31.939Z,29.74
2019-05-26T08:57:31.935Z,29.65
2019-05-26T08:58:34.115Z,29.68
2019-05-26T08:59:31.947Z,29.67
2019-05-26T09:00:31.992Z,29.71
2019-05-26T09:01:31.954Z,29.6
2019-05-26T09:02:32.066Z,29.33
2019-05-26T09:03:31.971Z,29.23
2019-05-26T09:04:31.742Z,29.05
2019-05-26T09:05:32.019Z,29.02
2019-05-26T09:06:31.750Z,28.8
2019-05-26T09:07:32.002Z,28.71
2019-05-26T09:08:32.007Z,28.62
2019-05-26T09:09:32.012Z,28.56
2019-05-26T09:10:32.014Z,28.52
2019-05-26T09:11:32.035Z,28.43
2019-05-26T09:12:32.029Z,28.46
2019-05-26T09:13:32.032Z,28.41
2019-05-26T09:14:32.036Z,28.34
2019-05-26T09:15:32.044Z,28.24
2019-05-26T09:16:31.808Z,28.11
2019-05-26T09:17:32.056Z,28.04
2019-05-26T09:18:32.066Z,28
2019-05-26T09:19:32.065Z,28.04
2019-05-26T09:20:32.072Z,28.07
2019-05-26T09:21:32.143Z,28.09
2019-05-26T09:22:31.896Z,28.03
2019-05-26T09:23:32.086Z,28.04
2019-05-26T09:24:32.112Z,28.03
2019-05-26T09:25:32.091Z,27.84
2019-05-26T09:26:32.109Z,27.72
2019-05-26T09:28:32.115Z,27.47
2019-05-26T09:29:34.661Z,27.44
2019-05-26T09:30:32.117Z,27.4
2019-05-26T09:31:34.096Z,27.41
2019-05-26T09:32:32.122Z,27.41
2019-05-26T09:33:32.128Z,27.43
2019-05-26T09:34:32.139Z,27.37
2019-05-26T09:35:32.135Z,27.41
2019-05-26T09:37:32.154Z,27.32
2019-05-26T09:38:32.154Z,27.29
2019-05-26T09:39:32.152Z,27.29
2019-05-26T09:40:32.153Z,27.28
2019-05-26T09:41:32.169Z,27.19
2019-05-26T09:42:32.156Z,27.12
2019-05-26T09:43:32.165Z,26.97
2019-05-26T09:44:32.167Z,27.04
2019-05-26T09:45:34.720Z,27.07
2019-05-26T09:46:34.723Z,27.1
2019-05-26T09:47:32.178Z,27.1
2019-05-26T09:48:32.181Z,27.13
2019-05-26T09:49:32.186Z,27.04
2019-05-26T09:50:32.186Z,27.04
2019-05-26T09:51:32.189Z,27.02
2019-05-26T09:52:32.264Z,27
2019-05-26T09:53:32.195Z,27.09
2019-05-26T09:54:33.417Z,27.12
2019-05-26T09:55:32.205Z,27.17
2019-05-26T09:56:32.210Z,27.21
2019-05-26T09:57:32.215Z,27.24
2019-05-26T09:58:32.229Z,27.24
2019-05-26T09:59:32.212Z,27.22
2019-05-26T10:00:32.225Z,27.24
2019-05-26T10:01:32.222Z,27.31
2019-05-26T10:02:32.225Z,27.31
2019-05-26T10:03:32.228Z,27.19
2019-05-26T10:04:32.235Z,27.19
2019-05-26T10:05:32.234Z,27.1
2019-05-26T10:06:32.234Z,26.97
2019-05-26T10:07:32.242Z,27.02
2019-05-26T10:08:32.238Z,27
2019-05-26T10:09:32.320Z,27.09
2019-05-26T10:10:32.249Z,27.12
2019-05-26T10:11:32.249Z,27.07
2019-05-26T10:12:32.259Z,27.17
2019-05-26T10:13:36.667Z,26.97
2019-05-26T10:14:32.260Z,27.09
2019-05-26T10:15:32.257Z,27.18
2019-05-26T10:16:32.272Z,27.14
2019-05-26T10:17:32.264Z,27.25
2019-05-26T10:18:32.274Z,27.29
2019-05-26T10:19:32.270Z,27.34
2019-05-26T10:20:32.275Z,27.28
2019-05-26T10:21:32.282Z,27.34
2019-05-26T10:22:32.276Z,27.21
2019-05-26T10:23:32.282Z,27.31
2019-05-26T10:24:32.285Z,27.17
2019-05-26T10:25:32.286Z,27.07
2019-05-26T10:26:32.290Z,27.24
2019-05-26T10:27:32.296Z,27.29
2019-05-26T10:28:32.321Z,27.4
2019-05-26T10:29:32.299Z,27.43
2019-05-26T10:30:32.302Z,27.62
2019-05-26T10:31:32.328Z,27.77
2019-05-26T10:32:32.308Z,27.67
2019-05-26T10:33:32.320Z,27.74
2019-05-26T10:34:32.315Z,27.72
2019-05-26T10:35:32.073Z,27.81
2019-05-26T10:36:32.321Z,27.92
2019-05-26T10:37:32.325Z,28.03
2019-05-26T10:38:32.341Z,28.02
2019-05-26T10:39:32.335Z,28.03
2019-05-26T10:40:32.336Z,28
2019-05-26T10:41:32.343Z,28.09
2019-05-26T10:42:32.339Z,28.25
2019-05-26T10:43:46.164Z,28.22
2019-05-26T10:44:32.346Z,28.37
2019-05-26T10:45:36.502Z,28.37
2019-05-26T10:46:32.361Z,28.4
2019-05-26T10:47:32.360Z,28.37
2019-05-26T10:48:32.364Z,28.36
2019-05-26T10:49:32.364Z,28.49
2019-05-26T10:50:32.428Z,28.52
2019-05-26T10:51:32.374Z,28.64
2019-05-26T10:52:32.139Z,28.8
2019-05-26T10:53:32.136Z,28.95
2019-05-26T10:54:32.401Z,28.86
2019-05-26T10:55:32.393Z,28.83
2019-05-26T10:56:32.485Z,28.85
2019-05-26T10:57:32.403Z,28.68
2019-05-26T10:58:32.405Z,28.64
2019-05-26T10:59:33.730Z,28.55
2019-05-26T11:00:35.726Z,28.55
2019-05-26T11:01:32.410Z,28.54
2019-05-26T11:02:32.181Z,28.56
2019-05-26T11:03:32.429Z,28.58
2019-05-26T11:04:32.423Z,28.59
2019-05-26T11:05:32.425Z,28.56
2019-05-26T11:06:32.434Z,28.41
2019-05-26T11:07:32.435Z,28.44
2019-05-26T11:08:32.435Z,28.46
2019-05-26T11:09:32.446Z,28.52
2019-05-26T11:10:32.442Z,28.58
2019-05-26T11:11:32.447Z,28.46
2019-05-26T11:12:32.453Z,28.51
2019-05-26T11:13:32.457Z,28.4
2019-05-26T11:14:32.459Z,28.43
2019-05-26T11:15:32.464Z,28.51
2019-05-26T11:16:32.480Z,28.56
2019-05-26T11:17:32.468Z,28.34
2019-05-26T11:18:32.516Z,28.19
2019-05-26T11:19:32.481Z,28.12
2019-05-26T11:20:32.484Z,28
2019-05-26T11:21:32.490Z,28.02
2019-05-26T11:22:32.496Z,27.97
2019-05-26T11:23:32.264Z,28.06
2019-05-26T11:24:32.501Z,28
2019-05-26T11:25:32.500Z,27.99
2019-05-26T11:26:32.503Z,27.79
2019-05-26T11:27:32.506Z,27.72
2019-05-26T11:28:32.540Z,27.57
2019-05-26T11:29:32.517Z,27.54
2019-05-26T11:30:32.517Z,27.46
2019-05-26T11:31:32.274Z,27.44
2019-05-26T11:32:32.614Z,27.41
2019-05-26T11:33:32.526Z,27.49
2019-05-26T11:34:32.599Z,27.54
2019-05-26T11:35:32.540Z,27.49
2019-05-26T11:36:32.538Z,27.59
2019-05-26T11:37:32.535Z,27.65
2019-05-26T11:38:36.066Z,27.77
2019-05-26T11:39:32.544Z,27.7
2019-05-26T11:40:32.589Z,27.99
2019-05-26T11:41:32.551Z,27.99
2019-05-26T11:42:32.563Z,28.03
2019-05-26T11:43:32.578Z,28.14
2019-05-26T11:44:32.563Z,28.21
2019-05-26T11:45:32.565Z,28.27
2019-05-26T11:46:32.595Z,28.4
2019-05-26T11:47:32.568Z,28.51
2019-05-26T11:48:32.621Z,28.52
2019-05-26T11:49:32.647Z,28.61
2019-05-26T11:50:32.628Z,28.68
2019-05-26T11:51:32.605Z,28.67
2019-05-26T11:52:32.583Z,28.67
2019-05-26T11:53:32.596Z,28.8
2019-05-26T11:54:34.586Z,28.8
2019-05-26T11:55:32.738Z,28.77
2019-05-26T11:56:32.606Z,28.85
2019-05-26T11:57:35.662Z,28.71
2019-05-26T11:58:32.604Z,28.83
2019-05-26T11:59:32.611Z,28.93
2019-05-26T12:00:32.623Z,28.9
2019-05-26T12:01:32.380Z,29.02
2019-05-26T12:02:32.621Z,29.09
2019-05-26T12:03:32.626Z,29.19
2019-05-26T12:04:32.640Z,29.18
2019-05-26T12:05:32.638Z,29.21
2019-05-26T12:06:32.637Z,29.31
2019-05-26T12:07:32.643Z,29.34
2019-05-26T12:08:32.653Z,29.36
2019-05-26T12:09:32.660Z,29.34
2019-05-26T12:10:32.657Z,29.33
2019-05-26T12:11:32.658Z,29.27
2019-05-26T12:12:32.661Z,29.19
2019-05-26T12:13:32.669Z,29.14
2019-05-26T12:14:39.909Z,29.05
2019-05-26T12:15:32.677Z,29.11
2019-05-26T12:16:33.755Z,28.92
2019-05-26T12:17:32.686Z,28.71
2019-05-26T12:18:32.694Z,28.68
2019-05-26T12:19:32.696Z,28.62
2019-05-26T12:20:32.760Z,28.56
2019-05-26T12:21:32.708Z,28.52
2019-05-26T12:22:32.707Z,28.62
2019-05-26T12:23:32.709Z,28.56
2019-05-26T12:24:32.715Z,28.66
2019-05-26T12:25:32.720Z,28.68
2019-05-26T12:26:32.721Z,28.66
2019-05-26T12:27:32.725Z,28.67
2019-05-26T12:28:32.727Z,28.68
2019-05-26T12:29:32.740Z,28.8
2019-05-26T12:30:32.743Z,28.89
2019-05-26T12:31:32.740Z,28.86
2019-05-26T12:32:32.744Z,28.92
2019-05-26T12:33:32.745Z,29.05
2019-05-26T12:34:32.751Z,29.09
2019-05-26T12:35:32.750Z,29.06
2019-05-26T12:36:32.847Z,29.18
2019-05-26T12:37:32.762Z,29.24
2019-05-26T12:38:32.770Z,29.16
2019-05-26T12:39:32.772Z,29.09
2019-05-26T12:40:32.773Z,28.92
2019-05-26T12:41:37.287Z,28.92
2019-05-26T12:42:32.783Z,28.98
2019-05-26T12:43:32.785Z,28.88
2019-05-26T12:44:32.799Z,28.81
2019-05-26T12:45:32.795Z,28.77
2019-05-26T12:46:32.802Z,28.7
2019-05-26T12:47:32.816Z,28.68
2019-05-26T12:48:32.803Z,28.67
2019-05-26T12:49:32.645Z,28.66
2019-05-26T12:50:32.823Z,28.8
2019-05-26T12:51:32.832Z,28.8
2019-05-26T12:52:32.818Z,28.77
2019-05-26T12:53:32.821Z,28.67
2019-05-26T12:54:32.832Z,28.61
2019-05-26T12:55:32.833Z,28.58
2019-05-26T12:56:32.837Z,28.62
2019-05-26T12:57:32.842Z,28.73
2019-05-26T12:58:32.840Z,28.76
2019-05-26T12:59:32.843Z,28.89
2019-05-26T13:00:54.450Z,28.88
2019-05-26T13:01:32.857Z,28.89
2019-05-26T13:02:32.862Z,28.98
2019-05-26T13:03:32.855Z,28.89
2019-05-26T13:04:32.865Z,28.92
2019-05-26T13:05:32.865Z,29.02
2019-05-26T13:06:32.928Z,28.93
2019-05-26T13:07:32.897Z,28.92
2019-05-26T13:08:32.899Z,29.06
2019-05-26T13:09:32.881Z,28.98
2019-05-26T13:10:32.887Z,29.12
2019-05-26T13:11:32.893Z,29.05
2019-05-26T13:12:32.912Z,29.11
2019-05-26T13:13:32.953Z,29.06
2019-05-26T13:14:32.901Z,29.09
2019-05-26T13:15:32.901Z,29.14
2019-05-26T13:16:35.786Z,28.93
2019-05-26T13:17:32.912Z,29.09
2019-05-26T13:18:32.925Z,29.09
2019-05-26T13:19:32.938Z,29.15
2019-05-26T13:20:33.006Z,29.24
2019-05-26T13:21:32.930Z,29.43
2019-05-26T13:22:32.941Z,29.48
2019-05-26T13:23:32.945Z,29.48
2019-05-26T13:24:32.938Z,29.41
2019-05-26T13:25:32.953Z,29.61
2019-05-26T13:26:32.947Z,29.73
2019-05-26T13:27:32.947Z,29.71
2019-05-26T13:28:32.953Z,29.68
2019-05-26T13:29:32.992Z,29.61
2019-05-26T13:30:32.961Z,29.63
2019-05-26T13:31:32.967Z,29.7
2019-05-26T13:32:32.972Z,29.67
2019-05-26T13:33:32.973Z,29.7
2019-05-26T13:34:35.618Z,29.7
2019-05-26T13:35:32.746Z,29.64
2019-05-26T13:36:33.040Z,29.57
2019-05-26T13:37:33.018Z,29.53
2019-05-26T13:38:32.996Z,29.48
2019-05-26T13:39:33.002Z,29.6
2019-05-26T13:40:34.455Z,29.45
2019-05-26T13:41:33.011Z,29.48
2019-05-26T13:42:33.017Z,29.58
2019-05-26T13:43:33.026Z,29.52
2019-05-26T13:44:33.026Z,29.46
2019-05-26T13:45:36.206Z,29.41
2019-05-26T13:46:33.030Z,29.37
2019-05-26T13:47:33.064Z,29.28
2019-05-26T13:48:33.099Z,29.19
2019-05-26T13:49:33.047Z,29.19
2019-05-26T13:50:33.112Z,29.15
2019-05-26T13:51:33.047Z,29.12
2019-05-26T13:52:33.063Z,29.23
2019-05-26T13:53:33.057Z,29.19
2019-05-26T13:54:33.060Z,29.14
2019-05-26T13:55:32.825Z,29.09
2019-05-26T13:56:33.117Z,29
2019-05-26T13:57:33.075Z,29.04
2019-05-26T13:58:33.080Z,29.05
2019-05-26T13:59:33.143Z,28.96
2019-05-26T14:00:33.088Z,28.93
2019-05-26T14:01:33.090Z,28.89
2019-05-26T14:02:33.103Z,28.89
2019-05-26T14:03:32.853Z,28.98
2019-05-26T14:04:33.101Z,29
2019-05-26T14:05:33.113Z,29.09
2019-05-26T14:06:33.128Z,29.06
2019-05-26T14:07:32.870Z,29.11
2019-05-26T14:08:33.114Z,29.16
2019-05-26T14:09:33.116Z,29.14
2019-05-26T14:10:33.126Z,29.23
2019-05-26T14:11:32.930Z,29.23
2019-05-26T14:12:33.128Z,29.23
2019-05-26T14:13:32.893Z,29.27
2019-05-26T14:14:33.137Z,29.23
2019-05-26T14:15:42.232Z,29.33
2019-05-26T14:16:32.906Z,29.3
2019-05-26T14:17:33.148Z,29.34
2019-05-26T14:18:33.175Z,29.37
2019-05-26T14:19:32.916Z,29.46
2019-05-26T14:20:33.160Z,29.48
2019-05-26T14:21:33.167Z,29.45
2019-05-26T14:22:33.166Z,29.45
2019-05-26T14:23:33.172Z,29.43
2019-05-26T14:24:33.173Z,29.34
2019-05-26T14:25:33.180Z,29.37
2019-05-26T14:26:33.199Z,29.26
2019-05-26T14:27:33.183Z,29.21
2019-05-26T14:28:33.188Z,29.06
2019-05-26T14:29:33.195Z,29.04
2019-05-26T14:30:33.197Z,28.93
2019-05-26T14:31:33.201Z,28.88
2019-05-26T14:32:33.207Z,28.89
2019-05-26T14:33:32.966Z,28.95
2019-05-26T14:34:33.211Z,29.02
2019-05-26T14:35:33.218Z,29.12
2019-05-26T14:36:33.240Z,29.14
2019-05-26T14:37:33.225Z,29.15
2019-05-26T14:38:47.597Z,29.09
2019-05-26T14:39:33.228Z,29.12
2019-05-26T14:40:33.255Z,29.21
2019-05-26T14:41:33.240Z,29.19
2019-05-26T14:42:33.242Z,29.15
2019-05-26T14:43:33.244Z,29.09
2019-05-26T14:44:33.258Z,28.95
2019-05-26T14:45:33.265Z,28.83
2019-05-26T14:46:33.260Z,28.68
2019-05-26T14:47:33.262Z,28.62
2019-05-26T14:48:33.275Z,28.51
2019-05-26T14:49:33.267Z,28.56
2019-05-26T14:50:33.281Z,28.46
2019-05-26T14:51:33.291Z,28.48
2019-05-26T14:52:33.274Z,28.49
2019-05-26T14:53:33.276Z,28.46
2019-05-26T14:54:33.293Z,28.43
2019-05-26T14:55:33.286Z,28.54
2019-05-26T14:56:33.294Z,28.54
2019-05-26T14:57:35.707Z,28.51
2019-05-26T14:58:33.296Z,28.49
2019-05-26T14:59:33.300Z,28.52
2019-05-26T15:00:33.066Z,28.56
2019-05-26T15:01:33.303Z,28.66
2019-05-26T15:02:33.070Z,28.62
2019-05-26T15:03:33.311Z,28.71
2019-05-26T15:04:35.939Z,28.76
2019-05-26T15:05:33.318Z,28.77
2019-05-26T15:06:33.325Z,28.88
2019-05-26T15:07:33.322Z,28.86
2019-05-26T15:08:33.328Z,28.8
2019-05-26T15:09:33.094Z,28.85
2019-05-26T15:10:33.336Z,28.81
2019-05-26T15:11:33.345Z,28.67
2019-05-26T15:12:33.335Z,28.7
2019-05-26T15:13:33.347Z,28.67
2019-05-26T15:14:33.346Z,28.66
2019-05-26T15:15:35.068Z,28.64
2019-05-26T15:16:33.413Z,28.62
2019-05-26T15:17:33.362Z,28.68
2019-05-26T15:18:33.367Z,28.56
2019-05-26T15:19:33.371Z,28.59
2019-05-26T15:20:33.365Z,28.55
2019-05-26T15:21:33.426Z,28.59
2019-05-26T15:22:33.371Z,28.51
2019-05-26T15:23:33.380Z,28.51
2019-05-26T15:24:33.388Z,28.43
2019-05-26T15:25:33.389Z,28.4
2019-05-26T15:26:33.385Z,28.41
2019-05-26T15:27:33.394Z,28.33
2019-05-26T15:28:33.400Z,28.4
2019-05-26T15:29:33.467Z,28.37
2019-05-26T15:30:33.406Z,28.4
2019-05-26T15:31:33.406Z,28.33
2019-05-26T15:32:33.404Z,28.34
2019-05-26T15:33:33.406Z,28.37
2019-05-26T15:34:33.414Z,28.4
2019-05-26T15:35:33.415Z,28.43
2019-05-26T15:36:33.423Z,28.49
2019-05-26T15:37:33.423Z,28.55
2019-05-26T15:38:47.126Z,28.52
2019-05-26T15:39:33.431Z,28.52
2019-05-26T15:40:33.481Z,28.41
2019-05-26T15:41:33.432Z,28.44
2019-05-26T15:42:33.454Z,28.41
2019-05-26T15:43:33.441Z,28.43
2019-05-26T15:44:33.437Z,28.37
2019-05-26T15:45:33.444Z,28.24
2019-05-26T15:46:33.441Z,28.12
2019-05-26T15:47:33.449Z,28.15
2019-05-26T15:48:33.444Z,28.04
2019-05-26T15:49:33.452Z,28
2019-05-26T15:50:33.467Z,27.9
2019-05-26T15:51:33.458Z,27.84
2019-05-26T15:52:33.458Z,27.82
2019-05-26T15:53:33.458Z,27.82
2019-05-26T15:54:33.462Z,27.81
2019-05-26T15:55:33.472Z,27.74
2019-05-26T15:56:33.465Z,27.79
2019-05-26T15:57:33.519Z,27.7
2019-05-26T15:58:33.474Z,27.78
2019-05-26T15:59:33.496Z,27.78
2019-05-26T16:00:33.476Z,27.75
2019-05-26T16:01:33.479Z,27.72
2019-05-26T16:02:33.484Z,27.72
2019-05-26T16:03:33.486Z,27.79
2019-05-26T16:04:33.483Z,27.69
2019-05-26T16:05:33.491Z,27.75
2019-05-26T16:06:33.495Z,27.67
2019-05-26T16:07:33.494Z,27.74
2019-05-26T16:08:33.262Z,27.75
2019-05-26T16:09:33.498Z,27.78
2019-05-26T16:10:33.499Z,27.78
2019-05-26T16:11:33.500Z,27.82
2019-05-26T16:12:33.502Z,27.77
2019-05-26T16:13:33.500Z,27.74
2019-05-26T16:14:33.504Z,27.7
2019-05-26T16:15:33.516Z,27.5
2019-05-26T16:16:45.542Z,27.41
2019-05-26T16:17:33.280Z,27.29
2019-05-26T16:18:33.519Z,27.04
2019-05-26T16:19:33.516Z,26.95
2019-05-26T16:20:33.623Z,27
2019-05-26T16:21:33.523Z,26.92
2019-05-26T16:22:33.519Z,26.87
2019-05-26T16:23:33.522Z,26.8
2019-05-26T16:24:33.528Z,26.8
2019-05-26T16:25:33.525Z,26.66
2019-05-26T16:26:33.551Z,26.57
2019-05-26T16:27:33.527Z,26.4
2019-05-26T16:28:33.826Z,26.32
2019-05-26T16:29:33.531Z,26.23
2019-05-26T16:30:33.535Z,26.21
2019-05-26T16:31:33.532Z,26.07
2019-05-26T16:32:33.540Z,26.07
2019-05-26T16:33:33.537Z,26.07
2019-05-26T16:34:33.538Z,25.9
2019-05-26T16:35:33.542Z,25.97
2019-05-26T16:36:33.558Z,25.85
2019-05-26T16:37:33.542Z,25.77
2019-05-26T16:38:33.541Z,25.69
2019-05-26T16:39:41.829Z,25.65
2019-05-26T16:40:33.541Z,25.7
2019-05-26T16:41:33.543Z,25.6
2019-05-26T16:42:33.551Z,25.57
2019-05-26T16:43:33.545Z,25.58
2019-05-26T16:44:33.546Z,25.6
2019-05-26T16:45:36.820Z,25.6
2019-05-26T16:46:33.545Z,25.45
2019-05-26T16:47:33.303Z,25.52
2019-05-26T16:48:33.367Z,25.4
2019-05-26T16:49:33.546Z,25.35
2019-05-26T16:50:33.893Z,25.28
2019-05-26T16:51:33.554Z,25.35
2019-05-26T16:52:33.551Z,25.3
2019-05-26T16:53:33.553Z,25.38
2019-05-26T16:54:33.317Z,25.33
2019-05-26T16:55:33.552Z,25.32
2019-05-26T16:56:33.553Z,25.35
2019-05-26T16:57:33.549Z,25.3
2019-05-26T16:58:33.549Z,25.32
2019-05-26T16:59:33.550Z,25.23
2019-05-26T17:00:33.558Z,25.21
2019-05-26T17:01:33.318Z,25.35
2019-05-26T17:02:33.563Z,25.33
2019-05-26T17:03:33.561Z,25.36
2019-05-26T17:04:33.313Z,25.45
2019-05-26T17:05:33.552Z,25.52
2019-05-26T17:06:33.552Z,25.61
2019-05-26T17:07:33.555Z,25.75
2019-05-26T17:08:33.554Z,25.67
2019-05-26T17:09:33.563Z,25.85
2019-05-26T17:10:33.561Z,25.82
2019-05-26T17:11:33.551Z,25.85
2019-05-26T17:12:33.562Z,25.72
2019-05-26T17:13:35.590Z,25.79
2019-05-26T17:14:33.555Z,25.67
2019-05-26T17:15:33.566Z,25.73
2019-05-26T17:16:33.558Z,25.65
2019-05-26T17:17:33.556Z,25.57
2019-05-26T17:18:33.556Z,25.57
2019-05-26T17:19:33.561Z,25.47
2019-05-26T17:20:33.561Z,25.33
2019-05-26T17:21:33.559Z,25.4
2019-05-26T17:22:33.554Z,25.2
2019-05-26T17:23:33.561Z,25.13
2019-05-26T17:24:33.560Z,25.08
2019-05-26T17:25:33.563Z,24.99
2019-05-26T17:26:33.560Z,24.85
2019-05-26T17:27:33.562Z,24.84
2019-05-26T17:28:33.567Z,24.87
2019-05-26T17:29:33.572Z,24.68
2019-05-26T17:30:33.561Z,24.53
2019-05-26T17:33:33.564Z,24.24
2019-05-26T17:34:33.560Z,24.16
2019-05-26T17:35:33.567Z,24.1
2019-05-26T17:36:33.551Z,24.1
2019-05-26T17:37:35.236Z,23.93
2019-05-26T17:41:36.096Z,23.55
2019-05-26T17:44:40.841Z,23.39
2019-05-26T17:45:36.229Z,23.38
2019-05-26T17:46:33.536Z,23.23
2019-05-26T17:47:35.463Z,23.2
2019-05-26T17:48:33.541Z,23.19
2019-05-26T17:49:33.532Z,23.05
2019-05-26T17:50:33.544Z,22.91
2019-05-26T17:51:33.531Z,22.86
2019-05-26T17:52:33.541Z,22.85
2019-05-26T17:53:33.538Z,22.82
2019-05-26T17:54:33.527Z,22.76
2019-05-26T17:55:33.522Z,22.67
2019-05-26T17:56:33.519Z,22.64
2019-05-26T17:57:36.864Z,22.47
2019-05-26T17:58:33.517Z,22.55
2019-05-26T17:59:33.272Z,22.45
2019-05-26T18:00:33.586Z,22.39
2019-05-26T18:01:33.517Z,22.35
2019-05-26T18:02:33.514Z,22.28
2019-05-26T18:03:33.506Z,22.24
2019-05-26T18:04:33.504Z,22.24
2019-05-26T18:05:33.511Z,22.15
2019-05-26T18:06:33.501Z,22.1
2019-05-26T18:07:33.499Z,22.05
2019-05-26T18:08:36.234Z,22.06
2019-05-26T18:09:48.441Z,21.96
2019-05-26T18:10:33.497Z,21.92
2019-05-26T18:11:33.570Z,21.83
2019-05-26T18:12:33.489Z,21.86
2019-05-26T18:13:33.513Z,21.83
2019-05-26T18:14:33.511Z,21.69
2019-05-26T18:15:33.492Z,21.67
2019-05-26T18:16:33.485Z,21.62
2019-05-26T18:17:48.741Z,21.52
2019-05-26T18:18:33.478Z,21.59
2019-05-26T18:19:34.417Z,21.49
2019-05-26T18:20:33.481Z,21.47
2019-05-26T18:21:33.471Z,21.42
2019-05-26T18:22:33.237Z,21.4
2019-05-26T18:23:33.484Z,21.29
2019-05-26T18:24:33.462Z,21.34
2019-05-26T18:25:33.220Z,21.29
2019-05-26T18:26:33.459Z,21.19
2019-05-26T18:27:33.212Z,21.24
2019-05-26T18:28:33.454Z,21.21